createdAt,value
2023-02-23T00:00:28.922Z,5.99
2023-02-23T00:03:10.966Z,5.95
2023-02-23T00:05:53.955Z,6.03
2023-02-23T00:08:28.897Z,6.00
2023-02-23T00:11:19.579Z,5.97
2023-02-23T00:14:01.938Z,5.85
2023-02-23T00:16:39.754Z,5.74
2023-02-23T00:19:20.503Z,5.82
2023-02-23T00:22:09.696Z,5.86
2023-02-23T00:24:53.097Z,5.94
2023-02-23T00:27:40.928Z,5.94
2023-02-23T00:30:34.608Z,5.99
2023-02-23T00:33:23.763Z,5.96
2023-02-23T00:36:14.302Z,6.05
2023-02-23T00:39:00.394Z,6.05
2023-02-23T00:41:38.259Z,6.23
2023-02-23T00:44:23.645Z,6.32
2023-02-23T00:47:04.001Z,6.21
2023-02-23T00:49:56.662Z,6.30
2023-02-23T00:52:40.048Z,6.24
2023-02-23T00:55:17.938Z,6.20
2023-02-23T00:58:03.754Z,6.17
2023-02-23T01:00:57.044Z,6.20
2023-02-23T01:03:35.634Z,6.26
2023-02-23T01:06:16.008Z,6.26
2023-02-23T01:09:07.712Z,6.23
2023-02-23T01:12:04.886Z,6.20
2023-02-23T01:14:43.884Z,6.26
2023-02-23T01:17:18.036Z,6.27
2023-02-23T01:19:58.958Z,6.29
2023-02-23T01:22:52.895Z,6.30
2023-02-23T01:25:29.408Z,6.27
2023-02-23T01:28:13.047Z,6.33
2023-02-23T01:30:58.008Z,6.32
2023-02-23T01:33:45.635Z,6.29
2023-02-23T01:36:29.030Z,6.24
2023-02-23T01:39:15.191Z,6.19
2023-02-23T01:41:58.540Z,6.26
2023-02-23T01:45:05.693Z,6.33
2023-02-23T01:47:49.873Z,6.28
2023-02-23T01:50:38.393Z,6.25
2023-02-23T01:53:46.648Z,6.29
2023-02-23T01:56:58.428Z,6.30
2023-02-23T01:59:51.097Z,6.27
2023-02-23T02:02:40.289Z,6.12
2023-02-23T02:05:20.192Z,6.21
2023-02-23T02:08:14.101Z,6.23
2023-02-23T02:11:29.034Z,6.22
2023-02-23T02:14:26.051Z,6.30
2023-02-23T02:17:54.557Z,6.24
2023-02-23T02:21:11.714Z,6.19
2023-02-23T02:24:15.812Z,6.18
2023-02-23T02:27:03.969Z,6.22
2023-02-23T02:30:05.110Z,6.19
2023-02-23T02:33:14.148Z,6.19
2023-02-23T02:35:59.760Z,6.14
2023-02-23T02:39:17.538Z,6.08
2023-02-23T02:42:14.502Z,5.99
2023-02-23T02:45:12.082Z,6.02
2023-02-23T02:48:15.958Z,6.01
2023-02-23T02:50:58.184Z,6.02
2023-02-23T02:53:54.606Z,6.18
2023-02-23T02:56:39.771Z,6.14
2023-02-23T02:59:41.911Z,6.13
2023-02-23T03:02:51.374Z,6.16
2023-02-23T03:05:58.606Z,6.09
2023-02-23T03:09:16.688Z,6.04
2023-02-23T03:12:46.988Z,6.09
2023-02-23T03:16:15.626Z,6.11
2023-02-23T03:19:17.447Z,6.07
2023-02-23T03:22:31.240Z,6.07
2023-02-23T03:25:42.619Z,6.16
2023-02-23T03:28:46.492Z,6.07
2023-02-23T03:32:30.742Z,6.04
2023-02-23T03:35:42.784Z,6.07
2023-02-23T03:39:20.611Z,6.07
2023-02-23T03:42:21.776Z,5.96
2023-02-23T03:45:20.337Z,5.93
2023-02-23T03:48:19.043Z,5.90
2023-02-23T03:51:24.488Z,5.81
2023-02-23T03:54:36.761Z,5.97
2023-02-23T03:57:34.777Z,5.94
2023-02-23T04:00:31.217Z,5.90
2023-02-23T04:03:31.682Z,5.87
2023-02-23T04:06:27.177Z,5.88
2023-02-23T04:09:25.337Z,5.84
2023-02-23T04:12:58.786Z,5.88
2023-02-23T04:15:52.223Z,5.80
2023-02-23T04:18:38.117Z,5.80
2023-02-23T04:21:15.893Z,5.86
2023-02-23T04:23:53.988Z,5.79
2023-02-23T04:26:44.712Z,5.81
2023-02-23T04:29:28.654Z,5.77
2023-02-23T04:32:17.733Z,5.83
2023-02-23T04:34:58.846Z,5.79
2023-02-23T04:37:43.810Z,5.72
2023-02-23T04:40:30.251Z,5.66
2023-02-23T04:43:29.124Z,5.68
2023-02-23T04:46:10.964Z,5.62
2023-02-23T04:48:51.222Z,5.65
2023-02-23T04:51:46.713Z,5.64
2023-02-23T04:54:30.936Z,5.74
2023-02-23T04:57:05.982Z,5.60
2023-02-23T04:59:58.727Z,5.62
2023-02-23T05:02:50.610Z,5.65
2023-02-23T05:05:42.587Z,5.59
2023-02-23T05:08:26.882Z,5.46
2023-02-23T05:11:17.239Z,5.58
2023-02-23T05:14:09.083Z,5.54
2023-02-23T05:16:57.198Z,5.48
2023-02-23T05:20:01.190Z,5.59
2023-02-23T05:22:47.285Z,5.51
2023-02-23T05:25:36.964Z,5.43
2023-02-23T05:28:31.378Z,5.50
2023-02-23T05:31:11.093Z,5.48
2023-02-23T05:33:49.853Z,5.47
2023-02-23T05:36:41.693Z,5.46
2023-02-23T05:39:29.918Z,5.44
2023-02-23T05:42:13.463Z,5.33
2023-02-23T05:45:00.415Z,5.35
2023-02-23T05:47:47.823Z,5.44
2023-02-23T05:50:27.270Z,5.52
2023-02-23T05:53:15.287Z,5.51
2023-02-23T05:55:57.031Z,5.55
2023-02-23T05:58:44.862Z,5.35
2023-02-23T06:01:31.878Z,5.41
2023-02-23T06:04:21.087Z,5.57
2023-02-23T06:07:09.080Z,5.49
2023-02-23T06:09:48.899Z,5.43
2023-02-23T06:12:36.403Z,5.56
2023-02-23T06:15:12.862Z,5.65
2023-02-23T06:17:59.657Z,5.52
2023-02-23T06:23:20.855Z,5.60
2023-02-23T06:26:08.385Z,5.61
2023-02-23T06:29:03.588Z,5.58
2023-02-23T06:31:48.106Z,5.56
2023-02-23T06:34:39.932Z,5.64
2023-02-23T06:37:29.265Z,5.62
2023-02-23T06:40:13.913Z,5.60
2023-02-23T06:43:03.296Z,5.78
2023-02-23T06:45:38.853Z,5.84
2023-02-23T06:48:22.112Z,5.88
2023-02-23T06:51:02.466Z,5.80
2023-02-23T06:53:49.994Z,5.82
2023-02-23T06:56:39.150Z,5.79
2023-02-23T06:59:16.784Z,5.82
2023-02-23T07:02:02.400Z,5.96
2023-02-23T07:04:48.632Z,5.92
2023-02-23T07:07:46.626Z,6.01
2023-02-23T07:10:39.490Z,6.10
2023-02-23T07:13:35.484Z,6.05
2023-02-23T07:16:19.978Z,6.13
2023-02-23T07:19:09.312Z,6.15
2023-02-23T07:22:01.232Z,6.28
2023-02-23T07:24:37.660Z,6.31
2023-02-23T07:27:16.988Z,6.35
2023-02-23T07:30:03.466Z,6.46
2023-02-23T07:32:45.914Z,6.46
2023-02-23T07:35:35.540Z,6.53
2023-02-23T07:38:34.717Z,6.67
2023-02-23T07:41:22.318Z,6.68
2023-02-23T07:44:00.837Z,6.65
2023-02-23T07:46:59.463Z,6.79
2023-02-23T07:49:43.815Z,6.55
2023-02-23T07:52:38.631Z,6.78
2023-02-23T07:55:24.693Z,6.73
2023-02-23T07:58:21.980Z,6.72
2023-02-23T08:01:07.604Z,6.69
2023-02-23T08:03:51.454Z,6.76
2023-02-23T08:06:43.676Z,6.60
2023-02-23T08:09:25.569Z,6.79
2023-02-23T08:12:18.311Z,6.84
2023-02-23T08:14:59.853Z,6.94
2023-02-23T08:17:50.179Z,6.90
2023-02-23T08:20:34.645Z,6.96
2023-02-23T08:23:10.555Z,7.02
2023-02-23T08:25:58.152Z,7.16
2023-02-23T08:28:45.895Z,7.22
2023-02-23T08:31:30.975Z,7.33
2023-02-23T08:34:11.555Z,7.39
2023-02-23T08:37:00.305Z,7.47
2023-02-23T08:39:55.423Z,7.44
2023-02-23T08:42:36.864Z,7.52
2023-02-23T08:45:14.823Z,7.54
2023-02-23T08:47:54.909Z,7.59
2023-02-23T08:50:46.927Z,7.51
2023-02-23T08:53:36.265Z,7.54
2023-02-23T08:56:25.225Z,7.70
2023-02-23T08:59:17.311Z,7.78
2023-02-23T09:02:05.830Z,7.60
2023-02-23T09:04:43.965Z,7.72
2023-02-23T09:07:24.951Z,7.90
2023-02-23T09:10:09.942Z,7.59
2023-02-23T09:12:55.074Z,7.59
2023-02-23T09:15:42.487Z,7.76
2023-02-23T09:18:33.058Z,7.88
2023-02-23T09:21:34.862Z,8.13
2023-02-23T09:24:24.786Z,7.67
2023-02-23T09:27:10.965Z,7.94
2023-02-23T09:29:48.982Z,8.18
2023-02-23T09:32:36.894Z,8.44
2023-02-23T09:35:31.478Z,8.54
2023-02-23T09:38:15.256Z,8.18
2023-02-23T09:41:09.002Z,8.38
2023-02-23T09:44:19.185Z,8.47
2023-02-23T09:47:21.165Z,8.51
2023-02-23T09:50:05.463Z,8.59
2023-02-23T09:53:03.357Z,8.75
2023-02-23T09:55:51.716Z,8.98
2023-02-23T09:58:47.853Z,9.01
2023-02-23T10:01:43.957Z,9.20
2023-02-23T10:04:32.515Z,9.23
2023-02-23T10:07:19.450Z,9.23
2023-02-23T10:10:15.931Z,9.13
2023-02-23T10:13:04.955Z,8.91
2023-02-23T10:15:56.899Z,9.08
2023-02-23T10:18:46.988Z,9.38
2023-02-23T10:22:06.596Z,9.22
2023-02-23T10:25:15.854Z,9.22
2023-02-23T10:27:55.870Z,9.47
2023-02-23T10:30:39.931Z,9.74
2023-02-23T10:33:47.535Z,9.92
2023-02-23T10:36:41.242Z,9.54
2023-02-23T10:39:20.487Z,9.52
2023-02-23T10:42:05.397Z,9.77
2023-02-23T10:44:55.758Z,9.72
2023-02-23T10:47:46.612Z,9.88
2023-02-23T10:50:42.202Z,9.76
2023-02-23T10:53:35.796Z,9.95
2023-02-23T10:56:36.411Z,10.25
2023-02-23T10:59:27.832Z,10.28
2023-02-23T11:02:32.030Z,10.39
2023-02-23T11:05:49.685Z,10.82
2023-02-23T11:08:47.882Z,10.92
2023-02-23T11:12:07.401Z,10.63
2023-02-23T11:14:46.870Z,10.68
2023-02-23T11:17:51.969Z,11.02
2023-02-23T11:20:55.166Z,11.18
2023-02-23T11:23:55.629Z,11.39
2023-02-23T11:26:43.685Z,11.37
2023-02-23T11:29:44.889Z,11.39
2023-02-23T11:32:30.615Z,11.43
2023-02-23T11:35:31.652Z,11.01
2023-02-23T11:38:35.483Z,11.43
2023-02-23T11:41:22.832Z,11.26
2023-02-23T11:44:26.400Z,11.41
2023-02-23T11:47:23.042Z,11.46
2023-02-23T11:50:12.051Z,11.30
2023-02-23T11:52:54.712Z,11.34
2023-02-23T11:55:57.752Z,11.16
2023-02-23T11:58:50.801Z,11.11
2023-02-23T12:01:47.014Z,11.29
2023-02-23T12:05:06.418Z,11.38
2023-02-23T12:08:01.558Z,11.35
2023-02-23T12:11:17.828Z,11.57
2023-02-23T12:14:28.201Z,11.74
2023-02-23T12:17:21.423Z,11.56
2023-02-23T12:20:21.827Z,11.82
2023-02-23T12:23:20.856Z,11.85
2023-02-23T12:26:36.996Z,11.81
2023-02-23T12:36:42.422Z,11.25
2023-02-23T12:39:46.103Z,10.98
2023-02-23T12:46:00.335Z,10.73
2023-02-23T12:49:01.806Z,10.74
2023-02-23T12:52:10.806Z,10.90
2023-02-23T12:54:58.533Z,10.83
2023-02-23T12:57:58.082Z,11.04
2023-02-23T13:01:05.751Z,11.00
2023-02-23T13:03:58.272Z,11.06
2023-02-23T13:06:56.868Z,11.01
2023-02-23T13:10:05.468Z,10.90
2023-02-23T13:12:56.624Z,10.64
2023-02-23T13:16:19.445Z,10.77
2023-02-23T13:19:36.390Z,10.80
2023-02-23T13:23:12.426Z,10.93
2023-02-23T13:26:03.655Z,10.69
2023-02-23T13:29:34.818Z,10.90
2023-02-23T13:32:47.425Z,10.84
2023-02-23T13:35:39.859Z,10.89
2023-02-23T13:38:59.887Z,10.90
2023-02-23T13:41:58.150Z,10.73
2023-02-23T13:44:58.111Z,10.85
2023-02-23T13:47:47.263Z,10.75
2023-02-23T13:50:58.944Z,10.70
2023-02-23T13:53:49.701Z,10.93
2023-02-23T13:56:47.411Z,10.96
2023-02-23T13:59:37.697Z,11.02
2023-02-23T14:02:33.353Z,11.11
2023-02-23T14:05:30.777Z,11.32
2023-02-23T14:08:24.885Z,11.07
2023-02-23T14:10:59.994Z,11.27
2023-02-23T14:13:58.040Z,11.10
2023-02-23T14:16:38.714Z,11.23
2023-02-23T14:19:41.241Z,11.03
2023-02-23T14:22:23.016Z,11.00
2023-02-23T14:25:36.642Z,11.05
2023-02-23T14:28:36.548Z,10.93
2023-02-23T14:31:31.440Z,10.99
2023-02-23T14:34:13.333Z,10.89
2023-02-23T14:37:04.877Z,10.91
2023-02-23T14:39:48.836Z,10.98
2023-02-23T14:42:52.034Z,11.02
2023-02-23T14:45:44.723Z,10.99
2023-02-23T14:48:36.676Z,10.96
2023-02-23T14:51:27.597Z,10.86
2023-02-23T14:54:29.084Z,10.76
2023-02-23T14:57:24.817Z,10.84
2023-02-23T15:00:27.874Z,10.78
2023-02-23T15:03:18.825Z,10.84
2023-02-23T15:06:00.048Z,10.67
2023-02-23T15:08:47.671Z,10.70
2023-02-23T15:11:40.906Z,10.70
2023-02-23T15:14:28.834Z,10.70
2023-02-23T15:17:09.375Z,10.63
2023-02-23T15:19:48.856Z,10.62
2023-02-23T15:22:44.907Z,10.59
2023-02-23T15:25:35.070Z,10.56
2023-02-23T15:28:34.331Z,10.53
2023-02-23T15:31:23.269Z,10.50
2023-02-23T15:34:04.513Z,10.48
2023-02-23T15:36:47.206Z,10.38
2023-02-23T15:39:39.972Z,10.29
2023-02-23T15:42:15.657Z,10.30
2023-02-23T15:45:25.277Z,10.21
2023-02-23T15:48:05.822Z,10.17
2023-02-23T15:50:50.254Z,10.13
2023-02-23T15:53:45.855Z,10.12
2023-02-23T15:56:36.493Z,10.10
2023-02-23T15:59:23.362Z,9.96
2023-02-23T16:02:01.846Z,9.87
2023-02-23T16:04:48.913Z,9.82
2023-02-23T16:07:39.238Z,9.76
2023-02-23T16:10:33.675Z,9.64
2023-02-23T16:13:17.747Z,9.59
2023-02-23T16:16:08.225Z,9.38
2023-02-23T16:18:52.714Z,9.57
2023-02-23T16:21:40.458Z,9.47
2023-02-23T16:24:28.833Z,9.53
2023-02-23T16:27:19.965Z,9.32
2023-02-23T16:30:04.590Z,9.27
2023-02-23T16:32:41.993Z,9.32
2023-02-23T16:35:22.939Z,9.25
2023-02-23T16:38:13.935Z,9.16
2023-02-23T16:40:48.857Z,8.96
2023-02-23T16:43:38.444Z,8.98
2023-02-23T16:46:28.299Z,8.90
2023-02-23T16:49:15.940Z,8.77
2023-02-23T16:52:04.990Z,8.75
2023-02-23T16:54:55.973Z,8.78
2023-02-23T16:57:43.270Z,8.76
2023-02-23T17:00:27.032Z,8.79
2023-02-23T17:03:13.350Z,8.74
2023-02-23T17:05:58.628Z,8.72
2023-02-23T17:08:45.933Z,8.68
2023-02-23T17:11:30.289Z,8.66
2023-02-23T17:14:42.945Z,8.68
2023-02-23T17:17:31.459Z,8.59
2023-02-23T17:20:17.818Z,8.55
2023-02-23T17:23:02.872Z,8.52
2023-02-23T17:25:43.734Z,8.41
2023-02-23T17:28:22.824Z,8.47
2023-02-23T17:31:08.230Z,8.33
2023-02-23T17:33:51.934Z,8.38
2023-02-23T17:36:40.800Z,8.40
2023-02-23T17:39:30.954Z,8.37
2023-02-23T17:42:11.299Z,8.39
2023-02-23T17:45:01.097Z,8.33
2023-02-23T17:47:44.168Z,8.29
2023-02-23T17:50:44.209Z,8.25
2023-02-23T17:53:42.313Z,8.25
2023-02-23T17:56:36.228Z,8.24
2023-02-23T17:59:18.985Z,8.21
2023-02-23T18:02:26.140Z,8.20
2023-02-23T18:05:14.533Z,8.17
2023-02-23T18:08:18.402Z,8.08
2023-02-23T18:11:12.773Z,8.07
2023-02-23T18:13:58.193Z,8.03
2023-02-23T18:16:45.004Z,8.04
2023-02-23T18:19:34.534Z,7.99
2023-02-23T18:22:15.277Z,7.98
2023-02-23T18:25:01.474Z,7.92
2023-02-23T18:27:51.306Z,7.88
2023-02-23T18:30:40.610Z,7.88
2023-02-23T18:33:22.090Z,7.85
2023-02-23T18:36:07.803Z,7.78
2023-02-23T18:39:04.943Z,7.76
2023-02-23T18:41:53.532Z,7.76
2023-02-23T18:44:36.995Z,7.76
2023-02-23T18:47:26.085Z,7.72
2023-02-23T18:50:10.747Z,7.67
2023-02-23T18:53:11.704Z,7.63
2023-02-23T18:55:58.531Z,7.64
2023-02-23T18:58:45.811Z,7.53
2023-02-23T19:01:47.194Z,7.51
2023-02-23T19:04:30.541Z,7.50
2023-02-23T19:07:39.523Z,7.43
2023-02-23T19:10:48.494Z,7.29
2023-02-23T19:13:33.115Z,7.28
2023-02-23T19:16:27.960Z,7.40
2023-02-23T19:19:16.505Z,7.39
2023-02-23T19:22:07.971Z,7.37
2023-02-23T19:24:57.876Z,7.43
2023-02-23T19:27:48.950Z,7.46
2023-02-23T19:30:26.699Z,7.53
2023-02-23T19:33:23.087Z,7.51
2023-02-23T19:36:14.381Z,7.60
2023-02-23T19:38:51.674Z,7.60
2023-02-23T19:41:40.766Z,7.61
2023-02-23T19:44:14.752Z,7.57
2023-02-23T19:47:00.841Z,7.54
2023-02-23T19:49:45.659Z,7.61
2023-02-23T19:52:33.485Z,7.55
2023-02-23T19:55:35.306Z,7.48
2023-02-23T19:58:23.854Z,7.47
2023-02-23T20:01:37.742Z,7.56
2023-02-23T20:04:30.093Z,7.47
2023-02-23T20:07:12.912Z,7.50
2023-02-23T20:09:53.653Z,7.52
2023-02-23T20:12:39.826Z,7.53
2023-02-23T20:15:15.617Z,7.43
2023-02-23T20:17:53.869Z,7.35
2023-02-23T20:20:49.878Z,7.35
2023-02-23T20:23:34.089Z,7.25
2023-02-23T20:26:23.563Z,7.25
2023-02-23T20:29:11.175Z,7.10
2023-02-23T20:31:50.873Z,7.15
2023-02-23T20:34:35.407Z,7.14
2023-02-23T20:37:21.276Z,7.12
2023-02-23T20:40:02.077Z,7.09
2023-02-23T20:42:54.469Z,7.05
2023-02-23T20:45:35.170Z,6.95
2023-02-23T20:48:27.822Z,6.98
2023-02-23T20:51:30.429Z,7.05
2023-02-23T20:54:11.854Z,6.96
2023-02-23T20:57:02.444Z,7.01
2023-02-23T20:59:46.286Z,7.02
2023-02-23T21:02:36.926Z,7.02
2023-02-23T21:05:25.301Z,7.07
2023-02-23T21:08:21.967Z,7.04
2023-02-23T21:11:04.883Z,7.11
2023-02-23T21:13:56.608Z,7.12
2023-02-23T21:16:45.295Z,7.15
2023-02-23T21:19:31.377Z,7.17
2023-02-23T21:22:17.968Z,7.17
2023-02-23T21:25:05.862Z,7.21
2023-02-23T21:27:47.199Z,7.17
2023-02-23T21:30:39.603Z,7.21
2023-02-23T21:33:16.824Z,7.17
2023-02-23T21:36:02.649Z,7.21
2023-02-23T21:38:54.225Z,7.29
2023-02-23T21:41:51.215Z,7.23
2023-02-23T21:44:35.862Z,7.26
2023-02-23T21:47:23.881Z,7.36
2023-02-23T21:50:04.837Z,7.41
2023-02-23T21:52:54.589Z,7.38
2023-02-23T21:55:39.894Z,7.39
2023-02-23T21:58:22.853Z,7.36
2023-02-23T22:01:06.270Z,7.30
2023-02-23T22:03:45.848Z,7.30
2023-02-23T22:06:28.798Z,7.34
2023-02-23T22:09:11.840Z,7.42
2023-02-23T22:11:59.155Z,7.48
2023-02-23T22:14:42.902Z,7.42
2023-02-23T22:17:29.502Z,7.36
2023-02-23T22:20:16.239Z,7.34
2023-02-23T22:23:00.492Z,7.34
2023-02-23T22:25:46.900Z,7.34
2023-02-23T22:28:39.693Z,7.34
2023-02-23T22:31:25.208Z,7.32
2023-02-23T22:34:07.868Z,7.31
2023-02-23T22:36:57.985Z,7.24
2023-02-23T22:39:41.841Z,7.32
2023-02-23T22:42:31.370Z,7.23
2023-02-23T22:45:19.558Z,7.24
2023-02-23T22:48:02.768Z,7.14
2023-02-23T22:50:48.171Z,7.16
2023-02-23T22:53:29.841Z,7.19
2023-02-23T22:56:04.963Z,7.15
2023-02-23T22:58:42.809Z,7.17
2023-02-23T23:01:25.365Z,7.08
2023-02-23T23:04:17.813Z,7.05
2023-02-23T23:07:06.542Z,6.95
2023-02-23T23:09:49.228Z,7.03
2023-02-23T23:12:41.471Z,6.96
2023-02-23T23:18:36.108Z,6.93
2023-02-23T23:21:24.814Z,6.99
2023-02-23T23:24:09.831Z,6.91
2023-02-23T23:27:08.296Z,6.96
2023-02-23T23:29:47.836Z,6.91
2023-02-23T23:32:27.896Z,6.95
2023-02-23T23:35:17.981Z,7.02
2023-02-23T23:37:58.926Z,7.04
2023-02-23T23:40:46.960Z,7.01
2023-02-23T23:43:28.720Z,6.96
2023-02-23T23:46:09.105Z,6.98
2023-02-23T23:49:02.562Z,6.96
2023-02-23T23:51:51.010Z,6.92
2023-02-23T23:54:31.051Z,6.95
2023-02-23T23:57:15.319Z,6.98
2023-02-23T23:59:59.870Z,7.01
